Time;durP1;ratioP1;P1;durP2;ratioP2;P2;SDS_P1;SDS_P2;PMS_P1;PMS_P2;Temp;Humidity;BMP_temperature;BMP_pressure;BME280_temperature;BME280_humidity;BME280_pressure;Samples;Min_cycle;Max_cycle;Signal;HPM_P1;HPM_P2
2022/03/27 00:02:09;;;;;;;5.55;3.47;;;;;;;;;;4986776;28;20027;-88
2022/03/27 00:04:35;;;;;;;6.32;3.47;;;;;;;;;;4987081;28;20541;-80
2022/03/27 00:07:00;;;;;;;6.03;3.70;;;;;;;;;;4984077;28;20030;-91
2022/03/27 00:09:25;;;;;;;5.70;3.33;;;;;;;;;;4983113;28;20486;-80
2022/03/27 00:11:51;;;;;;;5.43;3.70;;;;;;;;;;4982961;28;20674;-81
2022/03/27 00:14:16;;;;;;;6.53;3.60;;;;;;;;;;4990831;28;20037;-85
2022/03/27 00:16:41;;;;;;;6.10;3.83;;;;;;;;;;4987447;28;20333;-81
2022/03/27 00:19:07;;;;;;;5.07;3.50;;;;;;;;;;4987810;28;20112;-90
2022/03/27 00:21:32;;;;;;;5.70;3.88;;;;;;;;;;4986061;28;20033;-80
2022/03/27 00:23:58;;;;;;;6.30;3.25;;;;;;;;;;4985847;28;20097;-84
2022/03/27 00:26:23;;;;;;;6.68;3.85;;;;;;;;;;4984810;28;20790;-81
2022/03/27 00:28:49;;;;;;;5.63;3.70;;;;;;;;;;4987255;28;20038;-86
2022/03/27 00:31:16;;;;;;;5.32;3.65;;;;;;;;;;4985111;28;20071;-87
2022/03/27 00:33:44;;;;;;;5.38;3.83;;;;;;;;;;4985100;28;20045;-85
2022/03/27 00:36:13;;;;;;;4.65;3.42;;;;;;;;;;4988986;28;20771;-81
2022/03/27 00:38:38;;;;;;;5.15;3.55;;;;;;;;;;4986341;28;20145;-81
2022/03/27 00:41:05;;;;;;;5.38;3.90;;;;;;;;;;4988193;28;20610;-80
2022/03/27 00:43:32;;;;;;;6.85;3.70;;;;;;;;;;4988094;28;20124;-81
2022/03/27 00:45:57;;;;;;;5.68;3.40;;;;;;;;;;4987297;28;21379;-85
2022/03/27 00:48:23;;;;;;;5.00;3.72;;;;;;;;;;4985203;28;20131;-91
2022/03/27 00:50:50;;;;;;;6.13;3.83;;;;;;;;;;4981497;28;20402;-82
2022/03/27 00:53:16;;;;;;;6.07;3.88;;;;;;;;;;4989638;28;20026;-81
2022/03/27 00:55:42;;;;;;;4.95;3.63;;;;;;;;;;4989775;28;20406;-82
2022/03/27 00:58:08;;;;;;;6.18;4.40;;;;;;;;;;4991352;28;20033;-81
2022/03/27 01:00:43;;;;;;;6.18;3.67;;;;;;;;;;4987204;28;20085;-90
2022/03/27 01:03:12;;;;;;;6.53;3.88;;;;;;;;;;4989876;28;20022;-81
2022/03/27 01:05:38;;;;;;;6.65;4.30;;;;;;;;;;4983387;28;20026;-80
2022/03/27 01:08:08;;;;;;;6.43;4.70;;;;;;;;;;4985825;28;20042;-81
2022/03/27 01:10:34;;;;;;;7.03;4.70;;;;;;;;;;4980766;28;20041;-81
2022/03/27 01:13:22;;;;;;;5.78;4.43;;;;;;;;;;4993161;28;20429;-86
2022/03/27 01:15:56;;;;;;;7.07;4.65;;;;;;;;;;4991651;28;20121;-81
2022/03/27 01:18:22;;;;;;;6.88;4.53;;;;;;;;;;4985469;28;20034;-85
2022/03/27 01:20:47;;;;;;;5.57;4.10;;;;;;;;;;4993087;28;20037;-80
2022/03/27 01:23:14;;;;;;;6.05;4.20;;;;;;;;;;4987348;28;20026;-86
2022/03/27 01:25:43;;;;;;;6.25;4.25;;;;;;;;;;4985590;28;20371;-81
2022/03/27 01:28:11;;;;;;;5.70;4.20;;;;;;;;;;4991826;28;20482;-80
2022/03/27 01:30:37;;;;;;;7.18;4.07;;;;;;;;;;4986554;28;20037;-90
2022/03/27 01:33:05;;;;;;;5.63;4.15;;;;;;;;;;4991050;28;20096;-85
2022/03/27 01:35:30;;;;;;;5.50;4.10;;;;;;;;;;5006654;28;20897;-79
2022/03/27 01:37:56;;;;;;;5.93;4.38;;;;;;;;;;4991250;28;20063;-80
2022/03/27 01:40:21;;;;;;;6.82;4.20;;;;;;;;;;4986913;28;20026;-79
2022/03/27 01:42:48;;;;;;;6.38;4.43;;;;;;;;;;4986953;28;20038;-80
2022/03/27 01:45:14;;;;;;;6.13;4.55;;;;;;;;;;4987700;28;20022;-89
2022/03/27 01:47:39;;;;;;;5.97;4.22;;;;;;;;;;4986804;28;20466;-80
2022/03/27 01:50:06;;;;;;;6.90;4.82;;;;;;;;;;4985847;28;20121;-82
2022/03/27 01:52:33;;;;;;;6.78;4.57;;;;;;;;;;4982310;28;20026;-81
2022/03/27 01:54:58;;;;;;;6.68;4.68;;;;;;;;;;4979732;28;20034;-87
2022/03/27 01:57:23;;;;;;;6.90;4.60;;;;;;;;;;4981971;28;20500;-89
2022/03/27 01:59:49;;;;;;;6.15;4.80;;;;;;;;;;4986330;28;20040;-84
2022/03/27 02:02:17;;;;;;;6.55;4.78;;;;;;;;;;4986594;28;20117;-86
2022/03/27 02:04:42;;;;;;;7.10;4.93;;;;;;;;;;4988451;28;20038;-88
2022/03/27 02:07:08;;;;;;;5.95;4.55;;;;;;;;;;4981828;28;20022;-81
2022/03/27 02:09:33;;;;;;;7.05;5.45;;;;;;;;;;4991675;28;20453;-80
2022/03/27 02:11:58;;;;;;;7.30;5.70;;;;;;;;;;4987144;28;20045;-80
2022/03/27 02:14:24;;;;;;;7.85;5.65;;;;;;;;;;4987562;28;20042;-87
2022/03/27 02:16:49;;;;;;;7.38;5.50;;;;;;;;;;4984268;28;20367;-80
2022/03/27 02:19:14;;;;;;;8.27;5.78;;;;;;;;;;4985883;28;20080;-80
2022/03/27 02:21:41;;;;;;;7.97;5.60;;;;;;;;;;4988694;28;20040;-84
2022/03/27 02:24:08;;;;;;;8.13;6.10;;;;;;;;;;4986293;28;20121;-88
2022/03/27 02:26:34;;;;;;;7.93;6.03;;;;;;;;;;4990553;28;20046;-90
2022/03/27 02:29:00;;;;;;;8.35;5.75;;;;;;;;;;4985359;28;20120;-80
2022/03/27 02:31:25;;;;;;;7.13;5.40;;;;;;;;;;4985050;28;20117;-80
2022/03/27 02:33:51;;;;;;;8.23;5.68;;;;;;;;;;4999521;28;20041;-81
2022/03/27 02:36:19;;;;;;;8.30;5.80;;;;;;;;;;4981445;28;20022;-81
2022/03/27 02:38:45;;;;;;;8.40;5.90;;;;;;;;;;4982912;28;20034;-80
2022/03/27 02:41:11;;;;;;;7.75;5.50;;;;;;;;;;4983285;28;20390;-79
2022/03/27 02:43:38;;;;;;;8.85;5.55;;;;;;;;;;4987209;28;20030;-80
2022/03/27 02:46:07;;;;;;;8.10;5.88;;;;;;;;;;4989415;28;20026;-86
2022/03/27 02:48:33;;;;;;;7.93;6.18;;;;;;;;;;4987774;28;20612;-84
2022/03/27 02:50:58;;;;;;;8.80;6.13;;;;;;;;;;4985120;28;20026;-80
2022/03/27 02:53:23;;;;;;;7.82;6.00;;;;;;;;;;4985315;28;20034;-81
2022/03/27 02:55:49;;;;;;;7.68;6.25;;;;;;;;;;4987150;28;20049;-85
2022/03/27 02:58:15;;;;;;;8.23;6.00;;;;;;;;;;4991127;28;20023;-90
2022/03/27 03:00:43;;;;;;;8.40;6.00;;;;;;;;;;4988628;28;20041;-81
2022/03/27 03:03:09;;;;;;;8.68;5.68;;;;;;;;;;4986415;28;20401;-86
2022/03/27 03:05:37;;;;;;;7.70;5.82;;;;;;;;;;4978846;28;20112;-80
2022/03/27 03:08:03;;;;;;;7.45;5.72;;;;;;;;;;4986277;28;20038;-80
2022/03/27 03:10:29;;;;;;;8.10;6.25;;;;;;;;;;4986804;28;20496;-80
2022/03/27 03:12:55;;;;;;;7.85;6.15;;;;;;;;;;4981127;28;20034;-80
2022/03/27 03:15:22;;;;;;;8.23;5.80;;;;;;;;;;4984771;28;20034;-90
2022/03/27 03:17:47;;;;;;;8.93;6.30;;;;;;;;;;4982343;28;20398;-89
2022/03/27 03:20:13;;;;;;;8.23;6.22;;;;;;;;;;4981028;28;20058;-80
2022/03/27 03:22:40;;;;;;;8.48;6.20;;;;;;;;;;4988672;28;20038;-85
2022/03/27 03:25:06;;;;;;;8.98;6.97;;;;;;;;;;4988158;28;20030;-87
2022/03/27 03:27:32;;;;;;;8.90;7.18;;;;;;;;;;4983871;28;20046;-80
2022/03/27 03:29:57;;;;;;;8.77;6.68;;;;;;;;;;4983833;28;20366;-85
2022/03/27 03:32:23;;;;;;;9.48;7.18;;;;;;;;;;4985574;28;20759;-87
2022/03/27 03:34:49;;;;;;;9.75;7.28;;;;;;;;;;4978671;28;20037;-80
2022/03/27 03:37:14;;;;;;;10.55;7.38;;;;;;;;;;4986862;28;20538;-81
2022/03/27 03:39:39;;;;;;;11.10;7.50;;;;;;;;;;4982828;28;20042;-80
2022/03/27 03:42:06;;;;;;;9.85;7.68;;;;;;;;;;4992878;28;20111;-90
2022/03/27 03:44:31;;;;;;;11.70;8.35;;;;;;;;;;4987412;28;20079;-86
2022/03/27 03:46:57;;;;;;;10.32;7.78;;;;;;;;;;4992183;28;20030;-81
2022/03/27 03:49:23;;;;;;;10.32;7.95;;;;;;;;;;4987167;28;20084;-80
2022/03/27 03:51:49;;;;;;;11.25;8.02;;;;;;;;;;4984798;28;20034;-85
2022/03/27 03:54:14;;;;;;;10.38;7.80;;;;;;;;;;4985953;28;20037;-79
2022/03/27 03:56:40;;;;;;;9.50;7.75;;;;;;;;;;5002516;28;20038;-86
2022/03/27 03:59:05;;;;;;;10.60;7.85;;;;;;;;;;4975681;28;20030;-80
2022/03/27 04:01:30;;;;;;;9.95;8.30;;;;;;;;;;4987313;28;20371;-88
2022/03/27 04:03:56;;;;;;;11.45;8.07;;;;;;;;;;4986200;28;20027;-80
2022/03/27 04:06:22;;;;;;;11.32;8.10;;;;;;;;;;4979464;28;20030;-80
2022/03/27 04:08:48;;;;;;;10.57;7.85;;;;;;;;;;4986662;28;20026;-84
2022/03/27 04:11:17;;;;;;;10.77;8.40;;;;;;;;;;4987845;28;20468;-80
2022/03/27 04:13:46;;;;;;;10.88;8.13;;;;;;;;;;5004329;28;20026;-81
2022/03/27 04:16:12;;;;;;;11.23;8.27;;;;;;;;;;4984750;28;20029;-91
2022/03/27 04:18:38;;;;;;;11.50;8.38;;;;;;;;;;4985178;28;20101;-80
2022/03/27 04:21:04;;;;;;;11.48;8.50;;;;;;;;;;4989244;28;20154;-80
2022/03/27 04:23:30;;;;;;;11.15;8.75;;;;;;;;;;4992706;28;20033;-81
2022/03/27 04:25:55;;;;;;;11.10;8.02;;;;;;;;;;4991239;28;20022;-80
2022/03/27 04:28:21;;;;;;;11.48;8.45;;;;;;;;;;4986882;28;20053;-80
2022/03/27 04:30:46;;;;;;;10.43;8.35;;;;;;;;;;4986931;28;20026;-86
2022/03/27 04:33:11;;;;;;;10.40;7.90;;;;;;;;;;4988621;28;20022;-83
2022/03/27 04:35:38;;;;;;;9.80;7.88;;;;;;;;;;4989347;28;20027;-80
2022/03/27 04:38:03;;;;;;;10.25;7.88;;;;;;;;;;4987313;28;21673;-89
2022/03/27 04:40:29;;;;;;;10.68;7.85;;;;;;;;;;4991240;28;20057;-85
2022/03/27 04:42:54;;;;;;;10.63;7.80;;;;;;;;;;4985804;28;20038;-80
2022/03/27 04:45:19;;;;;;;10.40;7.78;;;;;;;;;;4986834;28;20030;-86
2022/03/27 04:47:45;;;;;;;11.35;7.50;;;;;;;;;;4989060;28;20030;-79
2022/03/27 04:50:10;;;;;;;10.02;7.40;;;;;;;;;;5000648;28;20633;-80
2022/03/27 04:52:37;;;;;;;9.48;7.43;;;;;;;;;;4984002;28;20041;-87
2022/03/27 04:55:05;;;;;;;10.20;7.43;;;;;;;;;;4985627;28;20061;-80
2022/03/27 04:57:39;;;;;;;10.35;7.32;;;;;;;;;;4987213;28;20042;-84
2022/03/27 05:00:09;;;;;;;9.73;7.38;;;;;;;;;;4986313;28;20035;-79
2022/03/27 05:02:36;;;;;;;10.32;7.43;;;;;;;;;;4988444;28;20034;-83
2022/03/27 05:05:03;;;;;;;10.88;7.70;;;;;;;;;;4990846;28;20049;-79
2022/03/27 05:07:28;;;;;;;11.57;7.72;;;;;;;;;;4990765;28;20434;-80
2022/03/27 05:09:53;;;;;;;9.65;6.78;;;;;;;;;;4987359;28;20038;-79
2022/03/27 05:12:19;;;;;;;10.73;7.82;;;;;;;;;;4990249;28;20037;-85
2022/03/27 05:14:44;;;;;;;9.70;7.60;;;;;;;;;;4990914;28;20027;-79
2022/03/27 05:17:09;;;;;;;12.10;8.15;;;;;;;;;;4988031;28;20023;-85
2022/03/27 05:19:35;;;;;;;11.13;8.23;;;;;;;;;;4986266;28;20749;-79
2022/03/27 05:22:00;;;;;;;9.70;7.22;;;;;;;;;;4986774;28;20030;-80
2022/03/27 05:24:26;;;;;;;10.70;7.90;;;;;;;;;;4987264;28;20038;-84
2022/03/27 05:26:51;;;;;;;11.27;7.65;;;;;;;;;;4984440;28;20030;-87
2022/03/27 05:29:16;;;;;;;10.75;8.00;;;;;;;;;;4985823;28;20541;-86
2022/03/27 05:31:41;;;;;;;12.77;7.85;;;;;;;;;;4984592;28;20062;-80
2022/03/27 05:34:07;;;;;;;16.50;8.27;;;;;;;;;;4984000;28;20037;-84
2022/03/27 05:36:32;;;;;;;10.75;7.07;;;;;;;;;;4989792;28;20067;-78
2022/03/27 05:38:57;;;;;;;12.07;7.35;;;;;;;;;;4989520;28;20589;-85
2022/03/27 05:41:23;;;;;;;10.70;7.25;;;;;;;;;;4988144;28;20549;-88
2022/03/27 05:43:49;;;;;;;10.35;6.60;;;;;;;;;;4988531;28;20022;-89
2022/03/27 05:46:14;;;;;;;10.90;7.10;;;;;;;;;;4986201;28;20525;-88
2022/03/27 05:48:39;;;;;;;11.27;7.05;;;;;;;;;;4988520;28;20038;-86
2022/03/27 05:51:05;;;;;;;11.23;6.88;;;;;;;;;;4986125;28;20032;-80
2022/03/27 05:53:30;;;;;;;10.60;6.80;;;;;;;;;;4984735;28;20036;-83
2022/03/27 05:55:57;;;;;;;10.93;6.93;;;;;;;;;;4987622;28;20118;-81
2022/03/27 05:58:23;;;;;;;12.52;7.80;;;;;;;;;;4982836;28;20034;-84
2022/03/27 06:00:49;;;;;;;12.68;7.40;;;;;;;;;;5005347;28;20520;-81
2022/03/27 06:03:15;;;;;;;12.70;7.53;;;;;;;;;;4985231;28;20133;-82
2022/03/27 06:05:41;;;;;;;14.35;8.20;;;;;;;;;;4986187;28;20046;-80
2022/03/27 06:08:06;;;;;;;11.77;7.22;;;;;;;;;;4989544;28;20031;-87
2022/03/27 06:10:32;;;;;;;12.82;7.25;;;;;;;;;;4990141;28;20029;-82
2022/03/27 06:13:02;;;;;;;13.13;7.75;;;;;;;;;;4979311;28;20030;-81
2022/03/27 06:15:29;;;;;;;15.25;8.20;;;;;;;;;;4987146;28;20030;-86
2022/03/27 06:17:56;;;;;;;13.57;7.38;;;;;;;;;;4987332;28;20061;-88
2022/03/27 06:20:27;;;;;;;13.85;7.45;;;;;;;;;;4988713;28;20109;-82
2022/03/27 06:22:53;;;;;;;16.00;8.02;;;;;;;;;;4981450;28;20030;-81
2022/03/27 06:25:25;;;;;;;14.57;8.40;;;;;;;;;;4980252;28;20034;-86
2022/03/27 06:27:51;;;;;;;14.30;7.82;;;;;;;;;;4988349;28;20113;-81
2022/03/27 06:30:19;;;;;;;14.45;7.55;;;;;;;;;;4999200;28;20118;-81
2022/03/27 06:32:46;;;;;;;17.73;8.93;;;;;;;;;;4980948;28;20046;-88
2022/03/27 06:35:13;;;;;;;16.63;7.90;;;;;;;;;;4984114;28;20037;-82
2022/03/27 06:37:39;;;;;;;15.00;8.63;;;;;;;;;;4986938;28;20042;-86
2022/03/27 06:40:06;;;;;;;18.70;8.43;;;;;;;;;;4985367;28;20057;-86
2022/03/27 06:42:31;;;;;;;16.33;8.63;;;;;;;;;;4982158;28;20397;-81
2022/03/27 06:44:57;;;;;;;16.55;8.38;;;;;;;;;;4992091;28;20043;-80
2022/03/27 06:47:24;;;;;;;16.83;8.50;;;;;;;;;;4985774;28;20026;-87
2022/03/27 06:49:54;;;;;;;15.77;7.97;;;;;;;;;;4988914;28;20068;-86
2022/03/27 06:52:20;;;;;;;16.08;8.63;;;;;;;;;;4983774;28;20111;-82
2022/03/27 06:54:47;;;;;;;13.60;7.35;;;;;;;;;;4989110;28;20030;-86
2022/03/27 06:57:14;;;;;;;14.65;7.72;;;;;;;;;;4987965;28;20022;-86
2022/03/27 07:05:09;;;;;;;16.85;8.90;;;;;;;;;;4984526;28;20459;-81
2022/03/27 07:07:35;;;;;;;16.95;8.43;;;;;;;;;;4988223;28;20065;-81
2022/03/27 07:10:00;;;;;;;16.38;8.27;;;;;;;;;;4992833;28;20058;-81
2022/03/27 07:12:26;;;;;;;16.42;8.60;;;;;;;;;;4981474;28;20061;-82
2022/03/27 07:14:52;;;;;;;16.02;8.50;;;;;;;;;;4989084;28;20026;-81
2022/03/27 07:17:18;;;;;;;16.35;8.35;;;;;;;;;;4985553;28;20604;-80
2022/03/27 07:19:47;;;;;;;17.63;8.57;;;;;;;;;;4991696;28;20493;-85
2022/03/27 07:22:13;;;;;;;15.82;8.68;;;;;;;;;;4985121;28;20037;-80
2022/03/27 07:24:38;;;;;;;17.85;9.07;;;;;;;;;;4989564;28;20034;-87
2022/03/27 07:27:04;;;;;;;15.52;8.60;;;;;;;;;;4984793;28;20085;-80
2022/03/27 07:29:32;;;;;;;15.35;7.97;;;;;;;;;;4997408;28;20072;-90
2022/03/27 07:31:58;;;;;;;16.48;8.88;;;;;;;;;;4985310;28;20034;-86
2022/03/27 07:34:24;;;;;;;15.35;8.73;;;;;;;;;;4999785;28;20065;-88
2022/03/27 07:36:49;;;;;;;15.52;8.63;;;;;;;;;;4986201;28;20037;-84
2022/03/27 07:39:15;;;;;;;14.82;8.32;;;;;;;;;;4980229;28;20038;-87
2022/03/27 07:41:40;;;;;;;14.98;8.13;;;;;;;;;;4997847;28;20084;-81
2022/03/27 07:44:06;;;;;;;14.15;7.93;;;;;;;;;;4994663;28;20030;-80
2022/03/27 07:46:32;;;;;;;15.40;8.23;;;;;;;;;;4983257;28;20043;-81
2022/03/27 07:48:57;;;;;;;12.60;7.40;;;;;;;;;;4985365;28;20038;-85
2022/03/27 07:51:23;;;;;;;16.17;9.18;;;;;;;;;;4987749;28;20112;-80
2022/03/27 07:53:48;;;;;;;14.70;8.43;;;;;;;;;;4987356;28;20076;-87
2022/03/27 07:56:14;;;;;;;14.73;8.35;;;;;;;;;;4984945;28;20452;-80
2022/03/27 07:58:39;;;;;;;14.00;8.02;;;;;;;;;;4984810;28;20111;-81
2022/03/27 08:01:05;;;;;;;14.02;7.63;;;;;;;;;;4979395;28;20041;-81
2022/03/27 08:03:33;;;;;;;13.77;8.30;;;;;;;;;;4988762;28;20030;-85
2022/03/27 08:05:59;;;;;;;13.30;8.07;;;;;;;;;;4982832;28;20024;-85
2022/03/27 08:08:25;;;;;;;13.38;8.02;;;;;;;;;;4990071;28;20037;-86
2022/03/27 08:10:50;;;;;;;14.50;7.90;;;;;;;;;;4978005;28;20086;-80
2022/03/27 08:13:15;;;;;;;13.32;7.90;;;;;;;;;;4994248;28;20049;-81
2022/03/27 08:15:41;;;;;;;14.13;8.50;;;;;;;;;;4983451;28;20034;-81
2022/03/27 08:18:06;;;;;;;11.80;7.43;;;;;;;;;;4987028;28;20042;-81
2022/03/27 08:20:32;;;;;;;14.52;8.13;;;;;;;;;;4989261;28;20505;-80
2022/03/27 08:22:58;;;;;;;13.05;8.00;;;;;;;;;;4987813;28;20026;-82
2022/03/27 08:28:09;;;;;;;14.00;7.85;;;;;;;;;;4995822;28;20056;-85
2022/03/27 08:30:34;;;;;;;13.20;8.27;;;;;;;;;;4987569;28;20663;-86
2022/03/27 08:33:00;;;;;;;12.65;8.15;;;;;;;;;;4995123;28;20027;-81
2022/03/27 08:35:25;;;;;;;14.32;8.13;;;;;;;;;;4984498;28;20050;-86
2022/03/27 08:37:51;;;;;;;11.10;6.97;;;;;;;;;;4988550;28;20041;-81
2022/03/27 08:40:18;;;;;;;12.95;7.95;;;;;;;;;;4986077;28;20035;-80
2022/03/27 08:42:44;;;;;;;12.27;7.30;;;;;;;;;;4990223;28;20022;-81
2022/03/27 08:45:09;;;;;;;12.48;7.22;;;;;;;;;;4981478;28;20033;-89
2022/03/27 08:47:39;;;;;;;13.82;7.75;;;;;;;;;;4993025;28;20032;-84
2022/03/27 08:50:34;;;;;;;13.48;8.32;;;;;;;;;;4995702;28;20061;-87
2022/03/27 08:53:07;;;;;;;11.85;7.35;;;;;;;;;;4975836;28;20065;-82
2022/03/27 08:55:55;;;;;;;;;;;;;;;;;;4989735;28;20034;-81
2022/03/27 08:58:25;;;;;;;11.88;7.45;;;;;;;;;;4993604;28;19949;-83
2022/03/27 09:00:51;;;;;;;13.40;7.75;;;;;;;;;;5012156;28;20031;-89
2022/03/27 09:03:19;;;;;;;13.82;7.60;;;;;;;;;;5000441;28;20040;-90
2022/03/27 09:05:45;;;;;;;12.73;7.78;;;;;;;;;;4990594;28;20120;-87
2022/03/27 09:08:10;;;;;;;13.27;7.57;;;;;;;;;;4998335;28;20104;-87
2022/03/27 09:10:37;;;;;;;14.05;8.07;;;;;;;;;;5005476;28;20075;-82
2022/03/27 09:13:03;;;;;;;11.82;7.70;;;;;;;;;;4997196;28;20022;-80
2022/03/27 09:15:29;;;;;;;14.07;8.05;;;;;;;;;;4987332;28;20022;-81
2022/03/27 09:18:04;;;;;;;13.00;7.47;;;;;;;;;;4991101;28;20034;-88
2022/03/27 09:20:37;;;;;;;11.68;7.28;;;;;;;;;;5003158;28;20061;-91
2022/03/27 09:23:12;;;;;;;12.15;7.82;;;;;;;;;;4996648;28;20026;-89
2022/03/27 09:25:53;;;;;;;13.63;7.95;;;;;;;;;;4993123;28;20026;-80
2022/03/27 09:28:26;;;;;;;13.40;8.00;;;;;;;;;;4991095;28;20026;-86
2022/03/27 09:30:53;;;;;;;13.40;8.48;;;;;;;;;;4996309;28;20113;-85
2022/03/27 09:33:48;;;;;;;13.05;8.05;;;;;;;;;;4994505;28;20394;-85
2022/03/27 09:36:27;;;;;;;15.98;8.65;;;;;;;;;;4999468;28;20030;-83
2022/03/27 09:39:16;;;;;;;12.18;7.60;;;;;;;;;;4992142;28;20101;-82
2022/03/27 09:41:47;;;;;;;12.48;7.53;;;;;;;;;;4998596;28;20027;-86
2022/03/27 09:44:17;;;;;;;13.20;7.85;;;;;;;;;;4995272;28;20071;-90
2022/03/27 09:46:59;;;;;;;13.25;8.05;;;;;;;;;;4997732;28;20046;-82
2022/03/27 09:49:25;;;;;;;13.95;8.30;;;;;;;;;;4996591;28;20030;-80
2022/03/27 09:52:16;;;;;;;14.27;8.75;;;;;;;;;;4989430;28;20052;-80
2022/03/27 09:54:58;;;;;;;14.70;8.38;;;;;;;;;;4988933;28;20026;-88
2022/03/27 09:57:26;;;;;;;13.95;8.73;;;;;;;;;;4998814;28;20030;-80
2022/03/27 09:59:53;;;;;;;15.95;8.93;;;;;;;;;;4995515;28;20065;-83
2022/03/27 10:02:23;;;;;;;13.95;8.35;;;;;;;;;;4994890;28;20045;-82
2022/03/27 10:05:09;;;;;;;14.15;8.88;;;;;;;;;;4994683;28;20034;-81
2022/03/27 10:07:47;;;;;;;13.88;8.82;;;;;;;;;;4998731;28;20117;-82
2022/03/27 10:10:18;;;;;;;14.15;8.35;;;;;;;;;;5004090;28;20078;-88
2022/03/27 10:12:46;;;;;;;14.23;8.77;;;;;;;;;;4988911;28;20030;-82
2022/03/27 10:15:15;;;;;;;13.70;8.75;;;;;;;;;;4977104;28;20050;-82
2022/03/27 10:17:45;;;;;;;14.88;9.18;;;;;;;;;;5007306;28;20070;-81
2022/03/27 10:20:15;;;;;;;13.57;8.48;;;;;;;;;;4982404;28;20125;-89
2022/03/27 10:22:43;;;;;;;14.77;8.95;;;;;;;;;;4985877;28;20137;-82
2022/03/27 10:25:10;;;;;;;15.60;8.73;;;;;;;;;;4990665;28;20418;-85
2022/03/27 10:27:38;;;;;;;13.80;8.18;;;;;;;;;;4991970;28;20034;-85
2022/03/27 10:30:05;;;;;;;14.32;8.50;;;;;;;;;;4985717;28;20585;-85
2022/03/27 10:32:31;;;;;;;13.80;9.13;;;;;;;;;;4982271;28;20030;-81
2022/03/27 10:35:15;;;;;;;15.45;8.38;;;;;;;;;;4980859;28;20512;-85
2022/03/27 10:38:04;;;;;;;14.98;8.55;;;;;;;;;;4976730;28;20869;-89
2022/03/27 10:40:45;;;;;;;16.52;8.57;;;;;;;;;;4987060;28;20577;-82
2022/03/27 10:43:17;;;;;;;14.48;8.25;;;;;;;;;;4981735;28;20824;-81
2022/03/27 10:45:43;;;;;;;15.75;8.65;;;;;;;;;;4984813;28;20034;-90
2022/03/27 10:48:13;;;;;;;13.23;7.55;;;;;;;;;;4981540;28;20041;-90
2022/03/27 10:50:51;;;;;;;12.77;8.23;;;;;;;;;;4978183;28;20574;-81
2022/03/27 10:53:19;;;;;;;11.32;7.22;;;;;;;;;;4985070;28;20026;-86
2022/03/27 10:55:46;;;;;;;12.82;7.90;;;;;;;;;;4977686;28;20439;-84
2022/03/27 10:58:29;;;;;;;12.18;7.28;;;;;;;;;;4980317;28;20041;-84
2022/03/27 11:00:55;;;;;;;12.52;7.25;;;;;;;;;;4979817;28;20022;-86
2022/03/27 11:04:04;;;;;;;12.35;7.18;;;;;;;;;;4986153;28;20181;-85
2022/03/27 11:06:31;;;;;;;13.32;7.88;;;;;;;;;;4980085;28;20035;-89
2022/03/27 11:09:02;;;;;;;14.93;8.38;;;;;;;;;;4987926;28;20121;-86
2022/03/27 11:11:37;;;;;;;11.60;7.03;;;;;;;;;;4982488;28;20025;-84
2022/03/27 11:14:07;;;;;;;14.23;7.20;;;;;;;;;;4996507;28;20061;-85
2022/03/27 11:16:36;;;;;;;13.88;7.72;;;;;;;;;;4981657;28;20522;-82
2022/03/27 11:19:02;;;;;;;11.30;6.78;;;;;;;;;;4989223;28;20050;-83
2022/03/27 11:21:30;;;;;;;12.57;7.70;;;;;;;;;;4982553;28;20029;-80
2022/03/27 11:24:02;;;;;;;13.18;6.45;;;;;;;;;;4994405;28;20120;-87
2022/03/27 11:26:29;;;;;;;11.30;7.03;;;;;;;;;;4985317;28;20033;-84
2022/03/27 11:28:58;;;;;;;11.77;6.93;;;;;;;;;;4989600;28;20117;-82
2022/03/27 11:31:33;;;;;;;12.05;6.45;;;;;;;;;;4988559;28;20056;-86
2022/03/27 11:34:29;;;;;;;11.27;6.90;;;;;;;;;;4998250;28;20485;-81
2022/03/27 11:37:14;;;;;;;11.52;6.80;;;;;;;;;;4977004;28;20060;-81
2022/03/27 11:39:40;;;;;;;12.88;7.28;;;;;;;;;;4995895;28;20130;-81
2022/03/27 11:42:29;;;;;;;12.43;7.10;;;;;;;;;;4982091;28;20746;-81
2022/03/27 11:45:18;;;;;;;12.88;7.50;;;;;;;;;;4990480;28;20034;-90
2022/03/27 11:47:49;;;;;;;15.73;8.10;;;;;;;;;;4983468;28;20035;-89
2022/03/27 11:50:31;;;;;;;11.23;7.05;;;;;;;;;;4988055;28;20121;-80
2022/03/27 11:52:58;;;;;;;12.18;7.20;;;;;;;;;;4980442;28;20502;-89
2022/03/27 11:55:27;;;;;;;14.27;7.68;;;;;;;;;;4989311;28;20114;-82
2022/03/27 11:57:57;;;;;;;13.18;7.68;;;;;;;;;;4992571;28;20040;-80
2022/03/27 12:00:42;;;;;;;13.82;8.40;;;;;;;;;;4983891;28;20482;-85
2022/03/27 12:03:19;;;;;;;12.63;7.45;;;;;;;;;;4985385;28;20036;-90
2022/03/27 12:05:45;;;;;;;11.43;7.85;;;;;;;;;;4982683;28;20503;-85
2022/03/27 12:08:15;;;;;;;12.95;7.78;;;;;;;;;;4981719;28;20046;-85
2022/03/27 12:10:46;;;;;;;12.18;7.07;;;;;;;;;;4990843;28;20037;-84
2022/03/27 12:13:14;;;;;;;14.23;7.57;;;;;;;;;;4983088;28;20053;-84
2022/03/27 12:15:50;;;;;;;13.27;7.60;;;;;;;;;;4999609;28;20041;-81
2022/03/27 12:18:29;;;;;;;12.13;7.32;;;;;;;;;;4988002;28;20073;-89
2022/03/27 12:20:54;;;;;;;10.88;7.35;;;;;;;;;;4983340;28;20101;-88
2022/03/27 12:23:32;;;;;;;12.93;7.70;;;;;;;;;;4988887;28;20035;-87
2022/03/27 12:25:58;;;;;;;13.75;8.05;;;;;;;;;;4981574;28;20022;-80
2022/03/27 12:31:24;;;;;;;12.77;8.20;;;;;;;;;;4992441;28;20075;-89
2022/03/27 12:33:52;;;;;;;13.20;7.72;;;;;;;;;;4979628;28;20514;-81
2022/03/27 12:36:18;;;;;;;12.25;7.75;;;;;;;;;;4994886;28;20040;-84
2022/03/27 12:38:43;;;;;;;12.85;8.02;;;;;;;;;;4994969;28;20041;-80
2022/03/27 12:41:10;;;;;;;13.38;7.85;;;;;;;;;;4994985;28;20034;-81
2022/03/27 12:43:55;;;;;;;14.07;8.55;;;;;;;;;;4993353;28;20038;-82
2022/03/27 12:46:22;;;;;;;12.60;8.13;;;;;;;;;;5001045;28;20685;-85
2022/03/27 12:49:08;;;;;;;13.68;7.82;;;;;;;;;;4985225;28;20572;-87
2022/03/27 12:51:33;;;;;;;14.18;7.93;;;;;;;;;;4985579;28;20033;-80
2022/03/27 12:54:10;;;;;;;12.85;8.15;;;;;;;;;;4983936;28;20398;-81
2022/03/27 12:56:58;;;;;;;12.95;7.85;;;;;;;;;;4990544;28;20038;-84
2022/03/27 12:59:23;;;;;;;12.95;7.68;;;;;;;;;;4994881;28;20090;-86
2022/03/27 13:01:50;;;;;;;12.23;7.70;;;;;;;;;;4991845;28;20034;-82
2022/03/27 13:04:15;;;;;;;18.13;8.65;;;;;;;;;;4984971;28;20034;-82
2022/03/27 13:07:03;;;;;;;12.35;7.43;;;;;;;;;;4992084;28;20038;-82
2022/03/27 13:09:28;;;;;;;12.93;7.60;;;;;;;;;;4992287;28;20363;-86
2022/03/27 13:11:54;;;;;;;10.23;6.25;;;;;;;;;;4992123;28;20034;-82
2022/03/27 13:14:19;;;;;;;10.75;6.97;;;;;;;;;;4988679;28;20085;-81
2022/03/27 13:16:47;;;;;;;12.23;6.65;;;;;;;;;;4985949;28;20045;-86
2022/03/27 13:19:21;;;;;;;11.18;6.50;;;;;;;;;;4984413;28;20062;-84
2022/03/27 13:21:51;;;;;;;11.18;6.35;;;;;;;;;;4984590;28;20414;-87
2022/03/27 13:24:19;;;;;;;11.82;6.72;;;;;;;;;;4985615;28;20154;-84
2022/03/27 13:26:50;;;;;;;12.55;6.95;;;;;;;;;;4989201;28;20026;-81
2022/03/27 13:29:18;;;;;;;13.88;7.30;;;;;;;;;;4981243;28;20034;-82
2022/03/27 13:31:45;;;;;;;12.85;6.72;;;;;;;;;;4986570;28;20081;-81
2022/03/27 13:34:12;;;;;;;13.35;7.00;;;;;;;;;;4988043;28;20034;-87
2022/03/27 13:36:39;;;;;;;11.52;7.03;;;;;;;;;;4986609;28;20117;-81
2022/03/27 13:39:06;;;;;;;12.45;7.00;;;;;;;;;;4989800;28;20030;-84
2022/03/27 13:44:18;;;;;;;11.77;6.93;;;;;;;;;;4988364;28;20484;-82
2022/03/27 13:46:44;;;;;;;11.32;6.55;;;;;;;;;;4982692;28;20021;-83
2022/03/27 13:49:10;;;;;;;10.95;6.60;;;;;;;;;;4996679;28;20038;-79
2022/03/27 13:51:35;;;;;;;14.00;6.28;;;;;;;;;;4982244;28;20478;-80
2022/03/27 13:54:01;;;;;;;11.65;6.47;;;;;;;;;;4990814;28;20084;-80
2022/03/27 13:56:26;;;;;;;10.82;6.32;;;;;;;;;;4986614;28;20026;-80
2022/03/27 13:58:52;;;;;;;11.25;6.60;;;;;;;;;;4984182;28;20040;-82
2022/03/27 14:01:17;;;;;;;10.68;6.13;;;;;;;;;;4987591;28;20030;-83
2022/03/27 14:03:43;;;;;;;11.73;5.78;;;;;;;;;;4989824;28;20578;-82
2022/03/27 14:06:09;;;;;;;10.40;6.05;;;;;;;;;;4982959;28;20025;-80
2022/03/27 14:08:34;;;;;;;11.13;5.70;;;;;;;;;;4981354;28;20116;-84
2022/03/27 14:11:01;;;;;;;11.13;6.18;;;;;;;;;;4985504;28;20364;-83
2022/03/27 14:13:26;;;;;;;10.70;6.00;;;;;;;;;;4985315;28;20042;-84
2022/03/27 14:15:52;;;;;;;10.52;6.05;;;;;;;;;;4985368;28;20026;-80
2022/03/27 14:18:17;;;;;;;11.52;5.68;;;;;;;;;;4985503;28;20038;-84
2022/03/27 14:20:43;;;;;;;9.70;5.55;;;;;;;;;;4982409;28;20043;-79
2022/03/27 14:23:08;;;;;;;8.55;5.47;;;;;;;;;;4986081;28;20041;-83
2022/03/27 14:25:34;;;;;;;11.70;6.00;;;;;;;;;;4983989;28;20022;-83
2022/03/27 14:27:59;;;;;;;9.85;5.18;;;;;;;;;;4993271;28;20442;-83
2022/03/27 14:30:25;;;;;;;9.75;5.30;;;;;;;;;;4985266;28;20810;-83
2022/03/27 14:32:51;;;;;;;10.43;4.93;;;;;;;;;;4999293;28;20025;-79
2022/03/27 14:35:17;;;;;;;9.95;4.95;;;;;;;;;;4989381;28;20030;-83
2022/03/27 14:37:43;;;;;;;11.00;4.70;;;;;;;;;;4987810;28;20117;-80
2022/03/27 14:40:11;;;;;;;8.90;4.82;;;;;;;;;;4990416;28;20100;-80
2022/03/27 14:42:38;;;;;;;12.50;5.40;;;;;;;;;;4989732;28;20501;-80
2022/03/27 14:45:06;;;;;;;9.57;5.20;;;;;;;;;;4981065;28;20121;-87
2022/03/27 14:47:37;;;;;;;10.23;5.45;;;;;;;;;;4980156;28;20117;-85
2022/03/27 14:50:13;;;;;;;9.60;4.93;;;;;;;;;;4989508;28;20072;-84
2022/03/27 14:52:39;;;;;;;11.40;4.95;;;;;;;;;;4983343;28;20566;-86
2022/03/27 14:57:50;;;;;;;8.32;4.05;;;;;;;;;;4991266;28;20095;-85